createdAt,value
2019-04-29T00:02:30.229Z,97203.39
2019-04-29T00:07:25.256Z,97210.56
2019-04-29T00:12:21.597Z,97216.95
2019-04-29T00:17:17.897Z,97215.33
2019-04-29T00:22:12.567Z,97224.09
2019-04-29T00:27:07.931Z,97231.28
2019-04-29T00:32:02.580Z,97220.63
2019-04-29T00:37:04.930Z,97226.78
2019-04-29T00:42:01.138Z,97231.86
2019-04-29T00:46:55.725Z,97236.25
2019-04-29T00:51:50.322Z,97237.25
2019-04-29T00:56:44.902Z,97233.73
2019-04-29T01:01:39.932Z,97230.98
2019-04-29T01:06:34.518Z,97226.56
2019-04-29T01:11:29.256Z,97227.02
2019-04-29T01:16:23.821Z,97230.27
2019-04-29T01:21:18.431Z,97226.80
2019-04-29T01:26:15.090Z,97232.42
2019-04-29T01:31:11.896Z,97221.11
2019-04-29T01:36:08.240Z,97225.16
2019-04-29T01:41:04.481Z,97219.75
2019-04-29T01:45:59.079Z,97221.77
2019-04-29T01:50:53.663Z,97234.13
2019-04-29T01:55:48.252Z,97234.01
2019-04-29T02:00:42.844Z,97233.06
2019-04-29T02:05:37.438Z,97234.48
2019-04-29T02:10:33.650Z,97227.26
2019-04-29T02:15:28.234Z,97232.75
2019-04-29T02:20:22.901Z,97225.68
2019-04-29T02:25:19.141Z,97226.55
2019-04-29T02:30:21.317Z,97222.36
2019-04-29T02:35:15.897Z,97217.25
2019-04-29T02:40:12.542Z,97223.57
2019-04-29T02:45:13.975Z,97218.69
2019-04-29T02:50:09.397Z,97224.20
2019-04-29T02:55:06.284Z,97222.97
2019-04-29T03:00:08.626Z,97228.60
2019-04-29T03:05:20.932Z,97226.97
2019-04-29T03:10:16.160Z,97227.09
2019-04-29T03:15:11.031Z,97222.95
2019-04-29T03:20:09.292Z,97219.95
2019-04-29T03:25:03.990Z,97218.05
2019-04-29T03:29:58.581Z,97226.16
2019-04-29T03:34:53.147Z,97228.66
2019-04-29T03:39:47.751Z,97232.40
2019-04-29T03:44:42.342Z,97231.61
2019-04-29T03:49:36.930Z,97232.44
2019-04-29T03:54:31.499Z,97229.64
2019-04-29T03:59:26.093Z,97233.51
2019-04-29T04:04:38.399Z,97235.53
2019-04-29T04:09:33.746Z,97241.02
2019-04-29T04:14:28.353Z,97230.45
2019-04-29T04:19:24.209Z,97238.22
2019-04-29T04:24:18.796Z,97232.70
2019-04-29T04:29:13.446Z,97234.13
2019-04-29T04:34:08.029Z,97238.39
2019-04-29T04:39:02.983Z,97236.97
2019-04-29T04:43:57.573Z,97240.59
2019-04-29T04:48:52.160Z,97243.72
2019-04-29T04:53:46.778Z,97243.48
2019-04-29T04:58:41.367Z,97249.37
2019-04-29T05:03:35.966Z,97263.02
2019-04-29T05:08:30.551Z,97271.66
2019-04-29T05:13:28.372Z,97270.29
2019-04-29T05:18:21.431Z,97269.30
2019-04-29T05:23:16.025Z,97270.65
2019-04-29T05:28:10.611Z,97274.25
2019-04-29T05:33:05.412Z,97272.30
2019-04-29T05:38:01.625Z,97276.55
2019-04-29T05:42:56.219Z,97274.08
2019-04-29T05:47:59.797Z,97270.41
2019-04-29T05:53:11.530Z,97282.95
2019-04-29T05:58:13.461Z,97285.25
2019-04-29T06:03:08.072Z,97292.69
2019-04-29T06:08:02.940Z,97308.96
2019-04-29T06:12:57.750Z,97312.63
2019-04-29T06:17:55.611Z,97315.75
2019-04-29T06:22:54.309Z,97322.92
2019-04-29T06:27:50.701Z,97310.09
2019-04-29T06:32:45.371Z,97325.11
2019-04-29T06:37:49.450Z,97333.83
2019-04-29T06:42:49.429Z,97340.47
2019-04-29T06:47:46.370Z,97333.10
2019-04-29T06:52:41.012Z,97330.02
2019-04-29T06:57:35.760Z,97326.13
2019-04-29T07:02:30.461Z,97327.87
2019-04-29T07:07:25.342Z,97330.50
2019-04-29T07:12:20.004Z,97327.98
2019-04-29T07:17:20.340Z,97330.28
2019-04-29T07:22:15.433Z,97330.77
2019-04-29T07:27:10.589Z,97330.66
2019-04-29T07:32:09.459Z,97334.98
2019-04-29T07:37:01.495Z,97339.31
2019-04-29T07:41:56.193Z,97336.31
2019-04-29T07:46:56.804Z,97339.33
2019-04-29T07:51:48.767Z,97336.05
2019-04-29T07:56:43.660Z,97330.91
2019-04-29T08:01:38.567Z,97335.35
2019-04-29T08:06:38.261Z,97338.49
2019-04-29T08:11:32.730Z,97339.20
2019-04-29T08:16:27.362Z,97339.45
2019-04-29T08:21:22.353Z,97337.12
2019-04-29T08:26:17.036Z,97345.52
2019-04-29T08:31:11.640Z,97352.36
2019-04-29T08:36:06.552Z,97353.96
2019-04-29T08:41:01.157Z,97346.84
2019-04-29T08:45:57.917Z,97344.20
2019-04-29T08:50:54.866Z,97340.02
2019-04-29T08:55:50.345Z,97346.71
2019-04-29T09:00:51.412Z,97338.98
2019-04-29T09:06:04.235Z,97341.34
2019-04-29T09:10:42.921Z,97339.85
2019-04-29T09:15:37.530Z,97338.75
2019-04-29T09:20:32.204Z,97335.39
2019-04-29T09:25:28.042Z,97335.89
2019-04-29T09:30:23.462Z,97326.61
2019-04-29T09:35:18.838Z,97321.08
2019-04-29T09:40:19.938Z,97315.87
2019-04-29T09:45:24.165Z,97316.06
2019-04-29T09:50:16.625Z,97310.16
2019-04-29T09:55:11.465Z,97300.84
2019-04-29T10:00:29.415Z,97299.11
2019-04-29T10:05:25.656Z,97305.61
2019-04-29T10:10:20.467Z,97292.83
2019-04-29T10:15:16.929Z,97294.16
2019-04-29T10:20:16.343Z,97289.45
2019-04-29T10:25:11.938Z,97284.92
2019-04-29T10:30:10.521Z,97279.39
2019-04-29T10:35:10.432Z,97267.31
2019-04-29T10:40:17.473Z,97261.25
2019-04-29T10:45:12.399Z,97259.44
2019-04-29T10:50:17.120Z,97247.48
2019-04-29T10:55:12.023Z,97241.41
2019-04-29T11:00:28.586Z,97241.25
2019-04-29T11:05:28.057Z,97243.22
2019-04-29T11:10:25.797Z,97232.88
2019-04-29T11:15:22.485Z,97241.91
2019-04-29T11:20:21.193Z,97244.78
2019-04-29T11:25:32.784Z,97251.97
2019-04-29T11:30:29.155Z,97257.09
2019-04-29T11:35:31.473Z,97235.54
2019-04-29T11:40:42.667Z,97224.73
2019-04-29T11:45:28.174Z,97227.02
2019-04-29T11:50:27.769Z,97224.23
2019-04-29T11:55:22.606Z,97225.23
2019-04-29T12:00:35.406Z,97216.94
2019-04-29T12:05:34.663Z,97216.27
2019-04-29T12:10:29.714Z,97218.33
2019-04-29T12:15:29.027Z,97217.25
2019-04-29T12:20:28.284Z,97220.77
2019-04-29T12:25:27.412Z,97200.81
2019-04-29T12:30:24.629Z,97200.91
2019-04-29T12:35:30.212Z,97195.38
2019-04-29T12:40:26.715Z,97192.88
2019-04-29T12:45:27.002Z,97192.48
2019-04-29T12:50:23.075Z,97190.50
2019-04-29T12:55:24.937Z,97193.44
2019-04-29T13:00:20.517Z,97199.68
2019-04-29T13:05:18.197Z,97194.66
2019-04-29T13:10:17.308Z,97201.81
2019-04-29T13:15:33.287Z,97189.66
2019-04-29T13:20:27.345Z,97196.81
2019-04-29T13:25:21.946Z,97192.34
2019-04-29T13:30:17.691Z,97183.84
2019-04-29T13:35:12.973Z,97191.27
2019-04-29T13:40:11.466Z,97193.51
2019-04-29T13:45:13.460Z,97204.37
2019-04-29T13:50:19.116Z,97188.87
2019-04-29T13:55:17.135Z,97196.16
2019-04-29T14:00:11.447Z,97189.02
2019-04-29T14:05:15.209Z,97169.67
2019-04-29T14:10:15.020Z,97169.12
2019-04-29T14:15:09.170Z,97156.16
2019-04-29T14:20:10.716Z,97161.56
2019-04-29T14:25:06.395Z,97164.78
2019-04-29T14:30:02.923Z,97161.00
2019-04-29T14:35:11.852Z,97169.30
2019-04-29T14:40:07.507Z,97166.62
2019-04-29T14:45:25.775Z,97172.38
2019-04-29T14:50:20.866Z,97181.05
2019-04-29T14:55:24.694Z,97189.92
2019-04-29T15:00:42.045Z,97181.86
2019-04-29T15:05:36.825Z,97176.97
2019-04-29T15:10:32.917Z,97178.36
2019-04-29T15:15:44.301Z,97178.79
2019-04-29T15:20:46.256Z,97176.06
2019-04-29T15:25:40.914Z,97163.70
2019-04-29T15:30:36.902Z,97180.13
2019-04-29T15:35:32.150Z,97179.41
2019-04-29T15:40:28.726Z,97179.38
2019-04-29T15:45:23.066Z,97178.52
2019-04-29T15:50:19.619Z,97183.96
2019-04-29T15:55:14.421Z,97181.80
2019-04-29T16:00:21.702Z,97183.84
2019-04-29T16:05:28.549Z,97188.25
2019-04-29T16:10:42.750Z,97179.34
2019-04-29T16:15:37.420Z,97173.57
2019-04-29T16:20:32.033Z,97168.34
2019-04-29T16:25:26.648Z,97166.81
2019-04-29T16:30:25.985Z,97169.12
2019-04-29T16:35:23.185Z,97174.09
2019-04-29T16:40:15.030Z,97171.04
2019-04-29T16:45:12.339Z,97174.75
2019-04-29T16:50:07.253Z,97178.70
2019-04-29T16:55:04.135Z,97180.02
2019-04-29T16:59:58.156Z,97178.95
2019-04-29T17:04:53.181Z,97177.78
2019-04-29T17:10:07.224Z,97175.31
2019-04-29T17:15:04.478Z,97174.19
2019-04-29T17:19:58.145Z,97173.81
2019-04-29T17:24:52.743Z,97176.28
2019-04-29T17:29:55.446Z,97165.27
2019-04-29T17:34:58.591Z,97170.63
2019-04-29T17:39:47.451Z,97176.20
2019-04-29T17:44:41.846Z,97173.80
2019-04-29T17:49:54.399Z,97174.83
2019-04-29T17:54:59.827Z,97174.42
2019-04-29T18:00:12.183Z,97175.98
2019-04-29T18:05:16.873Z,97184.17
2019-04-29T18:10:29.400Z,97188.47
2019-04-29T18:15:25.721Z,97186.13
2019-04-29T18:20:33.412Z,97197.78
2019-04-29T18:25:46.925Z,97186.72
2019-04-29T18:30:41.959Z,97192.27
2019-04-29T18:35:36.891Z,97196.42
2019-04-29T18:40:35.534Z,97192.62
2019-04-29T18:45:29.969Z,97200.57
2019-04-29T18:50:24.889Z,97197.95
2019-04-29T18:55:19.798Z,97199.74
2019-04-29T19:00:20.065Z,97203.09
2019-04-29T19:05:17.527Z,97207.23
2019-04-29T19:10:14.368Z,97210.77
2019-04-29T19:15:11.715Z,97203.92
2019-04-29T19:20:12.860Z,97210.50
2019-04-29T19:25:10.462Z,97220.88
2019-04-29T19:30:05.246Z,97228.02
2019-04-29T19:34:59.780Z,97226.22
2019-04-29T19:39:58.279Z,97223.41
2019-04-29T19:44:51.090Z,97224.19
2019-04-29T19:49:46.035Z,97229.03
2019-04-29T19:54:40.877Z,97232.25
2019-04-29T19:59:36.777Z,97239.38
2019-04-29T20:04:53.768Z,97244.52
2019-04-29T20:10:04.112Z,97242.00
2019-04-29T20:14:58.686Z,97251.47
2019-04-29T20:20:00.062Z,97249.64
2019-04-29T20:24:55.647Z,97242.22
2019-04-29T20:29:50.316Z,97239.80
2019-04-29T20:34:46.082Z,97238.49
2019-04-29T20:39:41.232Z,97233.56
2019-04-29T20:44:36.941Z,97234.87
2019-04-29T20:49:37.981Z,97225.01
2019-04-29T20:54:29.994Z,97213.14
2019-04-29T20:59:25.911Z,97218.37
2019-04-29T21:04:31.073Z,97217.27
2019-04-29T21:09:17.256Z,97214.27
2019-04-29T21:14:16.506Z,97212.44
2019-04-29T21:19:11.667Z,97209.83
2019-04-29T21:24:13.636Z,97213.53
2019-04-29T21:29:02.821Z,97210.19
2019-04-29T21:33:58.845Z,97209.41
2019-04-29T21:39:02.142Z,97207.27
2019-04-29T21:43:57.737Z,97209.77
2019-04-29T21:48:52.321Z,97199.02
2019-04-29T21:53:46.903Z,97195.80
2019-04-29T21:58:41.487Z,97193.48
2019-04-29T22:03:36.221Z,97189.47
2019-04-29T22:08:31.019Z,97189.98
2019-04-29T22:13:25.661Z,97188.89
2019-04-29T22:18:20.490Z,97191.69
2019-04-29T22:23:17.209Z,97190.50
2019-04-29T22:28:16.084Z,97188.58
2019-04-29T22:33:08.426Z,97190.62
2019-04-29T22:38:03.024Z,97191.20
2019-04-29T22:43:11.348Z,97192.60
2019-04-29T22:48:16.495Z,97184.94
2019-04-29T22:53:07.287Z,97187.77
2019-04-29T22:58:00.820Z,97182.92
2019-04-29T23:02:57.737Z,97187.24
2019-04-29T23:07:52.890Z,97182.01
2019-04-29T23:12:49.249Z,97176.08
2019-04-29T23:17:47.452Z,97178.69
2019-04-29T23:22:56.811Z,97176.81
2019-04-29T23:27:52.601Z,97176.32
2019-04-29T23:32:47.653Z,97165.55
2019-04-29T23:37:42.487Z,97159.09
2019-04-29T23:42:37.078Z,97148.05
2019-04-29T23:47:31.655Z,97138.98
2019-04-29T23:52:26.934Z,97140.91
2019-04-29T23:57:29.660Z,97141.20
